Incheon, South Korea

11:11 AM KST on January 27, 2015 (GMT +0900)
Incheon International | Change Station
CLOSE
Current Station
Airport
Location: Incheon,
Elevation: 23 ft
Nearby Weather Stations

Elev 23 ft 37.47 °N, 126.45 °E | Updated 11 minutes ago

Clear
Clear
25 °F
Feels Like 12 °F
N
17
Wind Variable Wind from NNW

Today
High -- | Low -- °F
--% Chance of Precip.
Yesterday
High -- | Low -- °F
Precip. -- in
7:41 AM 5:51 PM
Waxing Crescent, 49% visible
Pressure 30.33 in
Visibility -9999.0 miles
Clouds
Windchill 12 °F
Dew Point 1 °F
Humidity 36%
Rainfall 0.00 in
Snow Depth Not available.
UV Not available.
Pollen Not available.
Air Quality Not available.
Flu Activity Not available.
METAR RKSI 270200Z 34015KT CAVOK M04/M17 Q1027 NOSIG

More Conditions Fewer Conditions

Pressure 30.33 in
Visibility -9999.0 miles
Clouds
Windchill 12 °F
Dew Point 1 °F
Humidity 36%
Rainfall 0.00 in
Snow Depth Not available.
UV Not available.
Pollen Not available.
Air Quality Not available.
Flu Activity Not available.
METAR RKSI 270200Z 34015KT CAVOK M04/M17 Q1027 NOSIG

More Conditions Fewer Conditions

10-Day Weather Forecast

Almanac

Astronomy

Jan. 27, 2015 Rise Set
Actual Time
Civil Twilight
Nautical Twilight
Astronomical Twilight
Moon
Length of Visible Light
Length of Day
Tomorrow will be .
, % of the Moon is Illuminated

Today's Extremes

Country Highs Country Lows

Community

WunderPhotos

Upload Photos

1,790,475 photos uploaded!

WunderBlogs® & News

Nearby

Air Quality

  Air Quality AQ Index Pollutant
Not available.

Snow Depth

Station Depth Elevation

Earthquake Activity

City Distance Mag. Time & Date
Minimum magnitude displayed is 2.5.

Coastal Water Temperatures

Place Temperature

Nearby Weather Stations